Terminal Aerodrome Forecast
Issued by NWS

Home | Current Version | Previous Version | Text Only | Print | Product List | Glossary On
Versions: 1 2 3 4 5 6 7 8 9 10 11 12 13 14 15 16 17 18 19 20 21
000
FTUS43 KGRB 300235 AAA
TAFCWA
TAF AMD
KCWA 300235Z 3003/3024 28005KT 5SM BR SCT015 SCT100
     FM300500 33005KT 5SM BR BKN015
      TEMPO 3009/3013 3SM BR BKN006
     FM301500 36009KT P6SM SCT012 BKN025
     FM301900 36010KT P6SM SCT035=

USA.gov is the U.S. government's official web portal to all federal, state and local government web resources and services.